sensor_id;sensor_type;location;lat;lon;timestamp;temperature;humidity
22450;DHT22;11392;57.390;-2.468;2023-08-12T00:01:11;17.00;99.90
22450;DHT22;11392;57.390;-2.468;2023-08-12T00:03:38;17.00;99.90
22450;DHT22;11392;57.390;-2.468;2023-08-12T00:06:05;17.00;99.90
22450;DHT22;11392;57.390;-2.468;2023-08-12T00:08:32;17.00;99.90
22450;DHT22;11392;57.390;-2.468;2023-08-12T00:10:59;16.90;99.90
22450;DHT22;11392;57.390;-2.468;2023-08-12T00:13:26;16.90;99.90
22450;DHT22;11392;57.390;-2.468;2023-08-12T00:15:53;16.80;99.90
22450;DHT22;11392;57.390;-2.468;2023-08-12T00:18:20;16.70;99.90
22450;DHT22;11392;57.390;-2.468;2023-08-12T00:20:47;16.70;99.90
22450;DHT22;11392;57.390;-2.468;2023-08-12T00:23:14;16.70;99.90
22450;DHT22;11392;57.390;-2.468;2023-08-12T00:25:41;16.60;99.90
22450;DHT22;11392;57.390;-2.468;2023-08-12T00:28:08;16.60;99.90
22450;DHT22;11392;57.390;-2.468;2023-08-12T00:30:37;16.50;99.90
22450;DHT22;11392;57.390;-2.468;2023-08-12T00:33:04;16.30;99.90
22450;DHT22;11392;57.390;-2.468;2023-08-12T00:35:31;16.30;99.90
22450;DHT22;11392;57.390;-2.468;2023-08-12T00:37:58;16.30;99.90
22450;DHT22;11392;57.390;-2.468;2023-08-12T00:40:26;16.10;99.90
22450;DHT22;11392;57.390;-2.468;2023-08-12T00:42:53;16.10;99.90
22450;DHT22;11392;57.390;-2.468;2023-08-12T00:45:20;16.10;99.90
22450;DHT22;11392;57.390;-2.468;2023-08-12T00:47:47;16.20;99.90
22450;DHT22;11392;57.390;-2.468;2023-08-12T00:50:15;16.20;99.90
22450;DHT22;11392;57.390;-2.468;2023-08-12T00:52:43;16.10;99.90
22450;DHT22;11392;57.390;-2.468;2023-08-12T00:55:10;16.10;99.90
22450;DHT22;11392;57.390;-2.468;2023-08-12T00:57:38;16.20;99.90
22450;DHT22;11392;57.390;-2.468;2023-08-12T01:00:06;16.10;99.90
22450;DHT22;11392;57.390;-2.468;2023-08-12T01:02:33;16.10;99.90
22450;DHT22;11392;57.390;-2.468;2023-08-12T01:05:00;16.20;99.90
22450;DHT22;11392;57.390;-2.468;2023-08-12T01:07:28;16.20;99.90
22450;DHT22;11392;57.390;-2.468;2023-08-12T01:09:55;16.30;99.90
22450;DHT22;11392;57.390;-2.468;2023-08-12T01:12:59;16.30;99.90
22450;DHT22;11392;57.390;-2.468;2023-08-12T01:15:18;16.40;99.90
22450;DHT22;11392;57.390;-2.468;2023-08-12T01:17:49;16.40;99.90
22450;DHT22;11392;57.390;-2.468;2023-08-12T01:20:22;16.40;99.90
22450;DHT22;11392;57.390;-2.468;2023-08-12T01:22:57;16.30;99.90
22450;DHT22;11392;57.390;-2.468;2023-08-12T01:25:27;16.30;99.90
22450;DHT22;11392;57.390;-2.468;2023-08-12T01:27:54;16.30;99.90
22450;DHT22;11392;57.390;-2.468;2023-08-12T01:30:23;16.30;99.90
22450;DHT22;11392;57.390;-2.468;2023-08-12T01:33:05;16.20;99.90
22450;DHT22;11392;57.390;-2.468;2023-08-12T01:35:53;16.20;99.90
22450;DHT22;11392;57.390;-2.468;2023-08-12T01:38:22;16.20;99.90
22450;DHT22;11392;57.390;-2.468;2023-08-12T01:40:51;16.20;99.90
22450;DHT22;11392;57.390;-2.468;2023-08-12T01:43:19;16.20;99.90
22450;DHT22;11392;57.390;-2.468;2023-08-12T01:45:46;16.20;99.90
22450;DHT22;11392;57.390;-2.468;2023-08-12T01:48:13;16.20;99.90
22450;DHT22;11392;57.390;-2.468;2023-08-12T01:50:40;16.30;99.90
22450;DHT22;11392;57.390;-2.468;2023-08-12T01:53:13;16.30;99.90
22450;DHT22;11392;57.390;-2.468;2023-08-12T01:55:43;16.20;99.90
22450;DHT22;11392;57.390;-2.468;2023-08-12T01:58:11;16.30;99.90
22450;DHT22;11392;57.390;-2.468;2023-08-12T02:00:38;16.20;99.90
22450;DHT22;11392;57.390;-2.468;2023-08-12T02:03:05;16.20;99.90
22450;DHT22;11392;57.390;-2.468;2023-08-12T02:05:33;16.10;99.90
22450;DHT22;11392;57.390;-2.468;2023-08-12T02:08:00;16.10;99.90
22450;DHT22;11392;57.390;-2.468;2023-08-12T02:10:27;16.10;99.90
22450;DHT22;11392;57.390;-2.468;2023-08-12T02:12:54;16.10;99.90
22450;DHT22;11392;57.390;-2.468;2023-08-12T02:15:21;16.10;99.90
22450;DHT22;11392;57.390;-2.468;2023-08-12T02:17:49;16.10;99.90
22450;DHT22;11392;57.390;-2.468;2023-08-12T02:20:16;16.10;99.90
22450;DHT22;11392;57.390;-2.468;2023-08-12T02:22:43;16.00;99.90
22450;DHT22;11392;57.390;-2.468;2023-08-12T02:25:10;16.00;99.90
22450;DHT22;11392;57.390;-2.468;2023-08-12T02:27:37;16.00;99.90
22450;DHT22;11392;57.390;-2.468;2023-08-12T02:30:05;16.00;99.90
22450;DHT22;11392;57.390;-2.468;2023-08-12T02:32:32;15.90;99.90
22450;DHT22;11392;57.390;-2.468;2023-08-12T02:34:59;15.90;99.90
22450;DHT22;11392;57.390;-2.468;2023-08-12T02:37:26;15.90;99.90
22450;DHT22;11392;57.390;-2.468;2023-08-12T02:39:53;16.00;99.90
22450;DHT22;11392;57.390;-2.468;2023-08-12T02:42:21;15.90;99.90
22450;DHT22;11392;57.390;-2.468;2023-08-12T02:44:48;15.90;99.90
22450;DHT22;11392;57.390;-2.468;2023-08-12T02:47:15;15.80;99.90
22450;DHT22;11392;57.390;-2.468;2023-08-12T02:49:42;15.80;99.90
22450;DHT22;11392;57.390;-2.468;2023-08-12T02:52:10;15.80;99.90
22450;DHT22;11392;57.390;-2.468;2023-08-12T02:54:37;15.70;99.90
22450;DHT22;11392;57.390;-2.468;2023-08-12T02:57:04;15.70;99.90
22450;DHT22;11392;57.390;-2.468;2023-08-12T02:59:31;15.70;99.90
22450;DHT22;11392;57.390;-2.468;2023-08-12T03:01:59;15.80;99.90
22450;DHT22;11392;57.390;-2.468;2023-08-12T03:04:26;15.70;99.90
22450;DHT22;11392;57.390;-2.468;2023-08-12T03:06:53;15.70;99.90
22450;DHT22;11392;57.390;-2.468;2023-08-12T03:09:20;15.80;99.90
22450;DHT22;11392;57.390;-2.468;2023-08-12T03:11:47;15.80;99.90
22450;DHT22;11392;57.390;-2.468;2023-08-12T03:14:14;15.70;99.90
22450;DHT22;11392;57.390;-2.468;2023-08-12T03:16:41;15.70;99.90
22450;DHT22;11392;57.390;-2.468;2023-08-12T03:19:08;15.70;99.90
22450;DHT22;11392;57.390;-2.468;2023-08-12T03:21:35;15.60;99.90
22450;DHT22;11392;57.390;-2.468;2023-08-12T03:24:03;15.70;99.90
22450;DHT22;11392;57.390;-2.468;2023-08-12T03:26:30;15.70;99.90
22450;DHT22;11392;57.390;-2.468;2023-08-12T03:28:57;15.60;99.90
22450;DHT22;11392;57.390;-2.468;2023-08-12T03:31:24;15.60;99.90
22450;DHT22;11392;57.390;-2.468;2023-08-12T03:33:51;15.50;99.90
22450;DHT22;11392;57.390;-2.468;2023-08-12T03:36:18;15.40;99.90
22450;DHT22;11392;57.390;-2.468;2023-08-12T03:38:45;15.40;99.90
22450;DHT22;11392;57.390;-2.468;2023-08-12T03:41:13;15.40;99.90
22450;DHT22;11392;57.390;-2.468;2023-08-12T03:43:40;15.20;99.90
22450;DHT22;11392;57.390;-2.468;2023-08-12T03:46:07;15.20;99.90
22450;DHT22;11392;57.390;-2.468;2023-08-12T03:48:34;15.20;99.90
22450;DHT22;11392;57.390;-2.468;2023-08-12T03:51:00;15.30;99.90
22450;DHT22;11392;57.390;-2.468;2023-08-12T03:53:28;15.20;99.90
22450;DHT22;11392;57.390;-2.468;2023-08-12T03:55:55;15.20;99.90
22450;DHT22;11392;57.390;-2.468;2023-08-12T03:58:22;15.20;99.90
22450;DHT22;11392;57.390;-2.468;2023-08-12T04:00:49;15.20;99.90
22450;DHT22;11392;57.390;-2.468;2023-08-12T04:03:16;15.20;99.90
22450;DHT22;11392;57.390;-2.468;2023-08-12T04:05:50;15.20;99.90
22450;DHT22;11392;57.390;-2.468;2023-08-12T04:08:22;15.20;99.90
22450;DHT22;11392;57.390;-2.468;2023-08-12T04:10:50;15.10;99.90
22450;DHT22;11392;57.390;-2.468;2023-08-12T04:13:17;15.20;99.90
22450;DHT22;11392;57.390;-2.468;2023-08-12T04:15:49;15.10;99.90
22450;DHT22;11392;57.390;-2.468;2023-08-12T04:18:16;15.00;99.90
22450;DHT22;11392;57.390;-2.468;2023-08-12T04:20:45;14.90;99.90
22450;DHT22;11392;57.390;-2.468;2023-08-12T04:23:13;14.90;99.90
22450;DHT22;11392;57.390;-2.468;2023-08-12T04:25:46;14.80;99.90
22450;DHT22;11392;57.390;-2.468;2023-08-12T04:28:14;14.80;99.90
22450;DHT22;11392;57.390;-2.468;2023-08-12T04:30:43;14.80;99.90
22450;DHT22;11392;57.390;-2.468;2023-08-12T04:33:10;14.80;99.90
22450;DHT22;11392;57.390;-2.468;2023-08-12T04:35:37;14.80;99.90
22450;DHT22;11392;57.390;-2.468;2023-08-12T04:38:05;14.80;99.90
22450;DHT22;11392;57.390;-2.468;2023-08-12T04:40:32;14.80;99.90
22450;DHT22;11392;57.390;-2.468;2023-08-12T04:43:00;14.80;99.90
22450;DHT22;11392;57.390;-2.468;2023-08-12T04:45:27;14.70;99.90
22450;DHT22;11392;57.390;-2.468;2023-08-12T04:47:55;14.70;99.90
22450;DHT22;11392;57.390;-2.468;2023-08-12T04:50:22;14.70;99.90
22450;DHT22;11392;57.390;-2.468;2023-08-12T04:52:49;14.70;99.90
22450;DHT22;11392;57.390;-2.468;2023-08-12T04:55:16;14.70;99.90
22450;DHT22;11392;57.390;-2.468;2023-08-12T04:57:43;14.70;99.90
22450;DHT22;11392;57.390;-2.468;2023-08-12T05:00:11;14.70;99.90
22450;DHT22;11392;57.390;-2.468;2023-08-12T05:02:39;14.70;99.90
22450;DHT22;11392;57.390;-2.468;2023-08-12T05:05:06;14.70;99.90
22450;DHT22;11392;57.390;-2.468;2023-08-12T05:07:33;14.70;99.90
22450;DHT22;11392;57.390;-2.468;2023-08-12T05:10:01;14.80;99.90
22450;DHT22;11392;57.390;-2.468;2023-08-12T05:12:28;14.80;99.90
22450;DHT22;11392;57.390;-2.468;2023-08-12T05:14:55;14.80;99.90
22450;DHT22;11392;57.390;-2.468;2023-08-12T05:17:22;14.80;99.90
22450;DHT22;11392;57.390;-2.468;2023-08-12T05:19:49;14.70;99.90
22450;DHT22;11392;57.390;-2.468;2023-08-12T05:22:16;14.70;99.90
22450;DHT22;11392;57.390;-2.468;2023-08-12T05:24:43;14.70;99.90
22450;DHT22;11392;57.390;-2.468;2023-08-12T05:27:10;14.80;99.90
22450;DHT22;11392;57.390;-2.468;2023-08-12T05:29:37;14.80;99.90
22450;DHT22;11392;57.390;-2.468;2023-08-12T05:32:04;14.80;99.90
22450;DHT22;11392;57.390;-2.468;2023-08-12T05:34:31;14.80;99.90
22450;DHT22;11392;57.390;-2.468;2023-08-12T05:36:58;14.90;99.90
22450;DHT22;11392;57.390;-2.468;2023-08-12T05:39:25;14.90;99.90
22450;DHT22;11392;57.390;-2.468;2023-08-12T05:41:52;15.00;99.90
22450;DHT22;11392;57.390;-2.468;2023-08-12T05:44:19;15.10;99.90
22450;DHT22;11392;57.390;-2.468;2023-08-12T05:46:46;15.20;99.90
22450;DHT22;11392;57.390;-2.468;2023-08-12T05:49:13;15.30;99.90
22450;DHT22;11392;57.390;-2.468;2023-08-12T05:51:40;15.50;99.90
22450;DHT22;11392;57.390;-2.468;2023-08-12T05:54:08;15.50;99.90
22450;DHT22;11392;57.390;-2.468;2023-08-12T05:56:35;15.60;99.90
22450;DHT22;11392;57.390;-2.468;2023-08-12T05:59:02;15.70;99.90
22450;DHT22;11392;57.390;-2.468;2023-08-12T06:01:29;15.70;99.90
22450;DHT22;11392;57.390;-2.468;2023-08-12T06:03:56;15.80;99.90
22450;DHT22;11392;57.390;-2.468;2023-08-12T06:06:23;15.80;99.90
22450;DHT22;11392;57.390;-2.468;2023-08-12T06:08:50;15.90;99.90
22450;DHT22;11392;57.390;-2.468;2023-08-12T06:11:17;16.00;99.90
22450;DHT22;11392;57.390;-2.468;2023-08-12T06:13:46;16.10;99.90
22450;DHT22;11392;57.390;-2.468;2023-08-12T06:16:13;16.30;99.90
22450;DHT22;11392;57.390;-2.468;2023-08-12T06:18:40;16.40;99.90
22450;DHT22;11392;57.390;-2.468;2023-08-12T06:21:07;16.40;99.90
22450;DHT22;11392;57.390;-2.468;2023-08-12T06:23:34;16.40;99.90
22450;DHT22;11392;57.390;-2.468;2023-08-12T06:26:01;16.40;99.90
22450;DHT22;11392;57.390;-2.468;2023-08-12T06:28:28;16.50;99.90
22450;DHT22;11392;57.390;-2.468;2023-08-12T06:30:55;16.50;99.90
22450;DHT22;11392;57.390;-2.468;2023-08-12T06:33:22;16.50;99.90
22450;DHT22;11392;57.390;-2.468;2023-08-12T06:35:50;16.60;99.90
22450;DHT22;11392;57.390;-2.468;2023-08-12T06:38:17;16.60;99.90
22450;DHT22;11392;57.390;-2.468;2023-08-12T06:40:44;16.60;99.90
22450;DHT22;11392;57.390;-2.468;2023-08-12T06:43:11;16.60;99.90
22450;DHT22;11392;57.390;-2.468;2023-08-12T06:45:38;16.60;99.90
22450;DHT22;11392;57.390;-2.468;2023-08-12T06:48:06;16.70;99.90
22450;DHT22;11392;57.390;-2.468;2023-08-12T06:50:33;16.70;99.90
22450;DHT22;11392;57.390;-2.468;2023-08-12T06:53:00;16.70;99.90
22450;DHT22;11392;57.390;-2.468;2023-08-12T06:55:27;16.70;99.90
22450;DHT22;11392;57.390;-2.468;2023-08-12T06:57:54;16.70;99.90
22450;DHT22;11392;57.390;-2.468;2023-08-12T07:00:21;16.80;99.90
22450;DHT22;11392;57.390;-2.468;2023-08-12T07:02:48;16.80;99.90
22450;DHT22;11392;57.390;-2.468;2023-08-12T07:05:15;16.80;99.90
22450;DHT22;11392;57.390;-2.468;2023-08-12T07:07:42;16.80;99.90
22450;DHT22;11392;57.390;-2.468;2023-08-12T07:10:10;16.80;99.90
22450;DHT22;11392;57.390;-2.468;2023-08-12T07:12:37;16.90;99.90
22450;DHT22;11392;57.390;-2.468;2023-08-12T07:15:05;16.90;99.90
22450;DHT22;11392;57.390;-2.468;2023-08-12T07:17:32;17.00;99.90
22450;DHT22;11392;57.390;-2.468;2023-08-12T07:19:59;17.10;99.90
22450;DHT22;11392;57.390;-2.468;2023-08-12T07:22:29;17.10;99.90
22450;DHT22;11392;57.390;-2.468;2023-08-12T07:24:58;17.10;99.90
22450;DHT22;11392;57.390;-2.468;2023-08-12T07:27:27;17.10;99.90
22450;DHT22;11392;57.390;-2.468;2023-08-12T07:29:54;17.20;99.90
22450;DHT22;11392;57.390;-2.468;2023-08-12T07:32:21;17.20;99.90
22450;DHT22;11392;57.390;-2.468;2023-08-12T07:34:48;17.50;99.90
22450;DHT22;11392;57.390;-2.468;2023-08-12T07:37:15;17.60;99.90
22450;DHT22;11392;57.390;-2.468;2023-08-12T07:39:43;17.70;99.90
22450;DHT22;11392;57.390;-2.468;2023-08-12T07:42:10;17.80;99.90
22450;DHT22;11392;57.390;-2.468;2023-08-12T07:44:38;18.30;99.90
22450;DHT22;11392;57.390;-2.468;2023-08-12T07:47:05;18.50;99.90
22450;DHT22;11392;57.390;-2.468;2023-08-12T07:49:32;18.70;99.90
22450;DHT22;11392;57.390;-2.468;2023-08-12T07:51:59;18.80;99.90
22450;DHT22;11392;57.390;-2.468;2023-08-12T07:54:27;18.70;99.90
22450;DHT22;11392;57.390;-2.468;2023-08-12T07:56:54;18.80;99.90
22450;DHT22;11392;57.390;-2.468;2023-08-12T07:59:21;19.20;99.90
22450;DHT22;11392;57.390;-2.468;2023-08-12T08:01:48;19.40;99.90
22450;DHT22;11392;57.390;-2.468;2023-08-12T08:04:15;19.60;99.90
22450;DHT22;11392;57.390;-2.468;2023-08-12T08:06:42;19.90;99.90
22450;DHT22;11392;57.390;-2.468;2023-08-12T08:09:10;20.40;99.90
22450;DHT22;11392;57.390;-2.468;2023-08-12T08:11:37;20.70;99.90
22450;DHT22;11392;57.390;-2.468;2023-08-12T08:14:04;21.00;99.90
22450;DHT22;11392;57.390;-2.468;2023-08-12T08:16:31;21.00;99.90
22450;DHT22;11392;57.390;-2.468;2023-08-12T08:18:59;21.40;99.90
22450;DHT22;11392;57.390;-2.468;2023-08-12T08:21:26;21.50;99.90
22450;DHT22;11392;57.390;-2.468;2023-08-12T08:23:53;21.50;99.90
22450;DHT22;11392;57.390;-2.468;2023-08-12T08:26:20;21.40;99.90
22450;DHT22;11392;57.390;-2.468;2023-08-12T08:28:47;21.00;99.90
22450;DHT22;11392;57.390;-2.468;2023-08-12T08:31:14;20.70;99.90
22450;DHT22;11392;57.390;-2.468;2023-08-12T08:33:41;20.50;99.90
22450;DHT22;11392;57.390;-2.468;2023-08-12T08:36:11;20.10;99.90
22450;DHT22;11392;57.390;-2.468;2023-08-12T08:38:38;20.00;99.90
22450;DHT22;11392;57.390;-2.468;2023-08-12T08:41:06;19.80;99.90
22450;DHT22;11392;57.390;-2.468;2023-08-12T08:43:37;19.70;99.90
22450;DHT22;11392;57.390;-2.468;2023-08-12T08:46:06;19.40;99.90
22450;DHT22;11392;57.390;-2.468;2023-08-12T08:48:34;19.50;99.90
22450;DHT22;11392;57.390;-2.468;2023-08-12T08:51:05;19.40;99.90
22450;DHT22;11392;57.390;-2.468;2023-08-12T08:53:37;19.30;99.90
22450;DHT22;11392;57.390;-2.468;2023-08-12T08:56:06;19.20;99.90
22450;DHT22;11392;57.390;-2.468;2023-08-12T08:58:40;19.10;99.90
22450;DHT22;11392;57.390;-2.468;2023-08-12T09:01:08;19.00;99.90
22450;DHT22;11392;57.390;-2.468;2023-08-12T09:03:38;18.90;99.90
22450;DHT22;11392;57.390;-2.468;2023-08-12T09:06:05;18.90;99.90
22450;DHT22;11392;57.390;-2.468;2023-08-12T09:08:33;19.00;99.90
22450;DHT22;11392;57.390;-2.468;2023-08-12T09:11:02;19.20;99.90
22450;DHT22;11392;57.390;-2.468;2023-08-12T09:13:29;19.10;99.90
22450;DHT22;11392;57.390;-2.468;2023-08-12T09:15:56;19.00;99.90
22450;DHT22;11392;57.390;-2.468;2023-08-12T09:18:25;18.90;99.90
22450;DHT22;11392;57.390;-2.468;2023-08-12T09:20:53;18.80;99.90
22450;DHT22;11392;57.390;-2.468;2023-08-12T09:23:20;18.80;99.90
22450;DHT22;11392;57.390;-2.468;2023-08-12T09:25:48;18.80;99.90
22450;DHT22;11392;57.390;-2.468;2023-08-12T09:28:15;18.60;99.90
22450;DHT22;11392;57.390;-2.468;2023-08-12T09:30:42;18.60;99.90
22450;DHT22;11392;57.390;-2.468;2023-08-12T09:33:09;18.50;99.90
22450;DHT22;11392;57.390;-2.468;2023-08-12T09:35:40;18.50;99.90
22450;DHT22;11392;57.390;-2.468;2023-08-12T09:38:12;18.40;99.90
22450;DHT22;11392;57.390;-2.468;2023-08-12T09:40:40;18.50;99.90
22450;DHT22;11392;57.390;-2.468;2023-08-12T09:43:08;18.50;99.90
22450;DHT22;11392;57.390;-2.468;2023-08-12T09:45:35;18.50;99.90
22450;DHT22;11392;57.390;-2.468;2023-08-12T09:48:03;18.60;99.90
22450;DHT22;11392;57.390;-2.468;2023-08-12T09:50:30;18.70;99.90
22450;DHT22;11392;57.390;-2.468;2023-08-12T09:52:57;18.80;99.90
22450;DHT22;11392;57.390;-2.468;2023-08-12T09:55:25;18.90;99.90
22450;DHT22;11392;57.390;-2.468;2023-08-12T09:57:53;19.00;99.90
22450;DHT22;11392;57.390;-2.468;2023-08-12T10:00:22;19.20;99.90
22450;DHT22;11392;57.390;-2.468;2023-08-12T10:02:51;19.10;99.90
22450;DHT22;11392;57.390;-2.468;2023-08-12T10:05:22;19.10;99.90
22450;DHT22;11392;57.390;-2.468;2023-08-12T10:07:53;19.10;99.90
22450;DHT22;11392;57.390;-2.468;2023-08-12T10:10:21;19.00;99.90
22450;DHT22;11392;57.390;-2.468;2023-08-12T10:12:52;19.00;99.90
22450;DHT22;11392;57.390;-2.468;2023-08-12T10:15:20;19.20;99.90
22450;DHT22;11392;57.390;-2.468;2023-08-12T10:17:48;19.40;99.90
22450;DHT22;11392;57.390;-2.468;2023-08-12T10:20:23;19.30;99.90
22450;DHT22;11392;57.390;-2.468;2023-08-12T10:22:53;19.30;99.90
22450;DHT22;11392;57.390;-2.468;2023-08-12T10:25:21;19.30;99.90
22450;DHT22;11392;57.390;-2.468;2023-08-12T10:27:49;19.30;99.90
22450;DHT22;11392;57.390;-2.468;2023-08-12T10:30:16;19.30;99.90
22450;DHT22;11392;57.390;-2.468;2023-08-12T10:32:43;19.00;99.90
22450;DHT22;11392;57.390;-2.468;2023-08-12T10:35:10;19.00;99.90
22450;DHT22;11392;57.390;-2.468;2023-08-12T10:37:37;18.80;99.90
22450;DHT22;11392;57.390;-2.468;2023-08-12T10:40:05;18.80;99.90
22450;DHT22;11392;57.390;-2.468;2023-08-12T10:42:43;18.70;99.90
22450;DHT22;11392;57.390;-2.468;2023-08-12T10:45:12;18.80;99.90
22450;DHT22;11392;57.390;-2.468;2023-08-12T10:47:47;18.90;99.90
22450;DHT22;11392;57.390;-2.468;2023-08-12T10:50:23;19.00;99.90
22450;DHT22;11392;57.390;-2.468;2023-08-12T10:52:53;18.90;99.90
22450;DHT22;11392;57.390;-2.468;2023-08-12T10:55:25;18.90;99.90
22450;DHT22;11392;57.390;-2.468;2023-08-12T10:57:54;18.70;99.90
22450;DHT22;11392;57.390;-2.468;2023-08-12T11:00:24;18.70;99.90
22450;DHT22;11392;57.390;-2.468;2023-08-12T11:02:53;18.50;99.90
22450;DHT22;11392;57.390;-2.468;2023-08-12T11:05:21;18.40;99.90
22450;DHT22;11392;57.390;-2.468;2023-08-12T11:07:59;18.50;99.90
22450;DHT22;11392;57.390;-2.468;2023-08-12T11:10:34;18.30;99.90
22450;DHT22;11392;57.390;-2.468;2023-08-12T11:13:02;18.20;99.90
22450;DHT22;11392;57.390;-2.468;2023-08-12T11:15:40;18.20;99.90
22450;DHT22;11392;57.390;-2.468;2023-08-12T11:18:13;18.00;99.90
22450;DHT22;11392;57.390;-2.468;2023-08-12T11:20:41;17.80;99.90
22450;DHT22;11392;57.390;-2.468;2023-08-12T11:23:09;17.60;99.90
22450;DHT22;11392;57.390;-2.468;2023-08-12T11:25:43;17.50;99.90
22450;DHT22;11392;57.390;-2.468;2023-08-12T11:28:11;17.30;99.90
22450;DHT22;11392;57.390;-2.468;2023-08-12T11:30:40;17.20;99.90
22450;DHT22;11392;57.390;-2.468;2023-08-12T11:33:09;17.10;99.90
22450;DHT22;11392;57.390;-2.468;2023-08-12T11:35:37;17.10;99.90
22450;DHT22;11392;57.390;-2.468;2023-08-12T11:38:05;17.10;99.90
22450;DHT22;11392;57.390;-2.468;2023-08-12T11:40:33;17.20;99.90
22450;DHT22;11392;57.390;-2.468;2023-08-12T11:43:01;17.30;99.90
22450;DHT22;11392;57.390;-2.468;2023-08-12T11:45:32;17.20;99.90
22450;DHT22;11392;57.390;-2.468;2023-08-12T11:48:00;17.20;99.90
22450;DHT22;11392;57.390;-2.468;2023-08-12T11:50:27;17.20;99.90
22450;DHT22;11392;57.390;-2.468;2023-08-12T11:52:56;17.10;99.90
22450;DHT22;11392;57.390;-2.468;2023-08-12T11:55:23;17.10;99.90
22450;DHT22;11392;57.390;-2.468;2023-08-12T11:57:51;17.00;99.90
22450;DHT22;11392;57.390;-2.468;2023-08-12T12:00:19;16.90;99.90
22450;DHT22;11392;57.390;-2.468;2023-08-12T12:02:48;16.90;99.90
22450;DHT22;11392;57.390;-2.468;2023-08-12T12:05:17;16.90;99.90
22450;DHT22;11392;57.390;-2.468;2023-08-12T12:07:48;16.90;99.90
22450;DHT22;11392;57.390;-2.468;2023-08-12T12:10:30;16.90;99.90
22450;DHT22;11392;57.390;-2.468;2023-08-12T12:13:01;17.00;99.90
22450;DHT22;11392;57.390;-2.468;2023-08-12T12:15:28;17.00;99.90
22450;DHT22;11392;57.390;-2.468;2023-08-12T12:17:56;17.10;99.90
22450;DHT22;11392;57.390;-2.468;2023-08-12T12:20:23;17.10;99.90
22450;DHT22;11392;57.390;-2.468;2023-08-12T12:22:50;17.20;99.90
22450;DHT22;11392;57.390;-2.468;2023-08-12T12:25:17;17.30;99.90
22450;DHT22;11392;57.390;-2.468;2023-08-12T12:27:47;17.30;99.90
22450;DHT22;11392;57.390;-2.468;2023-08-12T12:30:15;17.30;99.90
22450;DHT22;11392;57.390;-2.468;2023-08-12T12:32:43;17.30;99.90
22450;DHT22;11392;57.390;-2.468;2023-08-12T12:35:10;17.30;99.90
22450;DHT22;11392;57.390;-2.468;2023-08-12T12:37:38;17.20;99.90
22450;DHT22;11392;57.390;-2.468;2023-08-12T12:40:05;17.20;99.90
22450;DHT22;11392;57.390;-2.468;2023-08-12T12:42:34;17.20;99.90
22450;DHT22;11392;57.390;-2.468;2023-08-12T12:45:01;17.30;99.90
22450;DHT22;11392;57.390;-2.468;2023-08-12T12:47:28;17.30;99.90
22450;DHT22;11392;57.390;-2.468;2023-08-12T12:49:56;17.20;99.90
22450;DHT22;11392;57.390;-2.468;2023-08-12T12:52:23;17.20;99.90
22450;DHT22;11392;57.390;-2.468;2023-08-12T12:54:50;17.20;99.90
22450;DHT22;11392;57.390;-2.468;2023-08-12T12:57:17;17.10;99.90
22450;DHT22;11392;57.390;-2.468;2023-08-12T12:59:44;17.20;99.90
22450;DHT22;11392;57.390;-2.468;2023-08-12T13:02:11;17.20;99.90
22450;DHT22;11392;57.390;-2.468;2023-08-12T13:04:39;17.30;99.90
22450;DHT22;11392;57.390;-2.468;2023-08-12T13:07:06;17.30;99.90
22450;DHT22;11392;57.390;-2.468;2023-08-12T13:09:33;17.50;99.90
22450;DHT22;11392;57.390;-2.468;2023-08-12T13:12:00;17.50;99.90
22450;DHT22;11392;57.390;-2.468;2023-08-12T13:14:27;17.50;99.90
22450;DHT22;11392;57.390;-2.468;2023-08-12T13:16:57;17.60;99.90
22450;DHT22;11392;57.390;-2.468;2023-08-12T13:19:24;17.80;99.90
22450;DHT22;11392;57.390;-2.468;2023-08-12T13:21:51;18.20;99.90
22450;DHT22;11392;57.390;-2.468;2023-08-12T13:24:18;19.00;99.90
22450;DHT22;11392;57.390;-2.468;2023-08-12T13:26:47;19.70;99.90
22450;DHT22;11392;57.390;-2.468;2023-08-12T13:29:14;19.80;99.90
22450;DHT22;11392;57.390;-2.468;2023-08-12T13:31:41;19.90;99.90
22450;DHT22;11392;57.390;-2.468;2023-08-12T13:34:08;20.00;99.90
22450;DHT22;11392;57.390;-2.468;2023-08-12T13:36:35;19.80;99.90
22450;DHT22;11392;57.390;-2.468;2023-08-12T13:39:02;19.80;99.90
22450;DHT22;11392;57.390;-2.468;2023-08-12T13:41:30;19.90;99.90
22450;DHT22;11392;57.390;-2.468;2023-08-12T13:43:57;19.80;99.90
22450;DHT22;11392;57.390;-2.468;2023-08-12T13:46:24;19.50;99.90
22450;DHT22;11392;57.390;-2.468;2023-08-12T13:48:52;19.40;99.90
22450;DHT22;11392;57.390;-2.468;2023-08-12T13:51:19;19.30;99.90
22450;DHT22;11392;57.390;-2.468;2023-08-12T13:53:46;19.20;99.90
22450;DHT22;11392;57.390;-2.468;2023-08-12T13:56:13;19.30;99.90
22450;DHT22;11392;57.390;-2.468;2023-08-12T13:58:41;19.60;99.90
22450;DHT22;11392;57.390;-2.468;2023-08-12T14:01:09;20.20;99.90
22450;DHT22;11392;57.390;-2.468;2023-08-12T14:03:36;20.60;99.90
22450;DHT22;11392;57.390;-2.468;2023-08-12T14:06:04;21.20;99.90
22450;DHT22;11392;57.390;-2.468;2023-08-12T14:08:31;21.50;99.90
22450;DHT22;11392;57.390;-2.468;2023-08-12T14:11:00;21.90;99.90
22450;DHT22;11392;57.390;-2.468;2023-08-12T14:13:27;21.90;99.90
22450;DHT22;11392;57.390;-2.468;2023-08-12T14:15:54;21.50;99.90
22450;DHT22;11392;57.390;-2.468;2023-08-12T14:18:21;21.20;99.90
22450;DHT22;11392;57.390;-2.468;2023-08-12T14:20:48;21.10;99.90
22450;DHT22;11392;57.390;-2.468;2023-08-12T14:23:15;21.00;99.90
22450;DHT22;11392;57.390;-2.468;2023-08-12T14:25:42;21.00;99.90
22450;DHT22;11392;57.390;-2.468;2023-08-12T14:28:09;20.60;99.90
22450;DHT22;11392;57.390;-2.468;2023-08-12T14:30:37;20.50;99.90
22450;DHT22;11392;57.390;-2.468;2023-08-12T14:33:04;20.50;99.90
22450;DHT22;11392;57.390;-2.468;2023-08-12T14:35:34;20.40;99.90
22450;DHT22;11392;57.390;-2.468;2023-08-12T14:38:01;20.50;99.90
22450;DHT22;11392;57.390;-2.468;2023-08-12T14:40:30;20.50;99.90
22450;DHT22;11392;57.390;-2.468;2023-08-12T14:42:57;20.40;99.90
22450;DHT22;11392;57.390;-2.468;2023-08-12T14:45:24;20.70;99.90
22450;DHT22;11392;57.390;-2.468;2023-08-12T14:47:51;21.10;99.90
22450;DHT22;11392;57.390;-2.468;2023-08-12T14:50:18;21.50;99.90
22450;DHT22;11392;57.390;-2.468;2023-08-12T14:52:46;21.70;99.90
22450;DHT22;11392;57.390;-2.468;2023-08-12T14:55:13;21.90;99.90
22450;DHT22;11392;57.390;-2.468;2023-08-12T14:57:40;22.30;99.90
22450;DHT22;11392;57.390;-2.468;2023-08-12T15:00:08;22.80;99.90
22450;DHT22;11392;57.390;-2.468;2023-08-12T15:02:37;22.70;99.90
22450;DHT22;11392;57.390;-2.468;2023-08-12T15:05:04;22.90;99.90
22450;DHT22;11392;57.390;-2.468;2023-08-12T15:07:32;22.80;99.90
22450;DHT22;11392;57.390;-2.468;2023-08-12T15:10:00;22.90;99.90
22450;DHT22;11392;57.390;-2.468;2023-08-12T15:12:27;22.60;99.90
22450;DHT22;11392;57.390;-2.468;2023-08-12T15:14:54;22.80;99.90
22450;DHT22;11392;57.390;-2.468;2023-08-12T15:17:21;22.80;99.90
22450;DHT22;11392;57.390;-2.468;2023-08-12T15:19:48;22.60;99.90